sensor_id;sensor_type;location;lat;lon;timestamp;pressure;altitude;pressure_sealevel;temperature;humidity
39897;BME280;25567;48.276;14.242;2023-01-25T00:01:59;100076.50;;;1.09;100.00
39897;BME280;25567;48.276;14.242;2023-01-25T00:04:27;100072.09;;;1.10;100.00
39897;BME280;25567;48.276;14.242;2023-01-25T00:06:53;100074.03;;;1.08;100.00
39897;BME280;25567;48.276;14.242;2023-01-25T00:09:22;100072.22;;;1.08;100.00
39897;BME280;25567;48.276;14.242;2023-01-25T00:11:50;100067.94;;;1.07;100.00
39897;BME280;25567;48.276;14.242;2023-01-25T00:14:16;100077.59;;;1.07;100.00
39897;BME280;25567;48.276;14.242;2023-01-25T00:16:43;100059.41;;;1.05;100.00
39897;BME280;25567;48.276;14.242;2023-01-25T00:19:10;100067.13;;;1.07;100.00
39897;BME280;25567;48.276;14.242;2023-01-25T00:21:37;100065.47;;;1.06;100.00
39897;BME280;25567;48.276;14.242;2023-01-25T00:24:05;100076.88;;;1.05;100.00
39897;BME280;25567;48.276;14.242;2023-01-25T00:26:41;100074.38;;;1.03;100.00
39897;BME280;25567;48.276;14.242;2023-01-25T00:29:12;100076.88;;;1.05;100.00
39897;BME280;25567;48.276;14.242;2023-01-25T00:31:40;100077.84;;;1.04;100.00
39897;BME280;25567;48.276;14.242;2023-01-25T00:39:38;100079.75;;;1.02;100.00
39897;BME280;25567;48.276;14.242;2023-01-25T00:42:08;100070.25;;;1.00;100.00
39897;BME280;25567;48.276;14.242;2023-01-25T00:44:37;100070.09;;;1.02;100.00
39897;BME280;25567;48.276;14.242;2023-01-25T00:47:04;100075.22;;;1.04;100.00
39897;BME280;25567;48.276;14.242;2023-01-25T00:49:31;100082.22;;;1.03;100.00
39897;BME280;25567;48.276;14.242;2023-01-25T00:51:59;100065.88;;;1.01;100.00
39897;BME280;25567;48.276;14.242;2023-01-25T00:54:25;100069.03;;;1.05;100.00
39897;BME280;25567;48.276;14.242;2023-01-25T00:56:52;100062.03;;;1.05;100.00
39897;BME280;25567;48.276;14.242;2023-01-25T00:59:22;100057.75;;;1.04;100.00
39897;BME280;25567;48.276;14.242;2023-01-25T01:01:50;100054.56;;;1.00;100.00
39897;BME280;25567;48.276;14.242;2023-01-25T01:04:18;100049.19;;;1.02;100.00
39897;BME280;25567;48.276;14.242;2023-01-25T01:06:45;100052.06;;;0.99;100.00
39897;BME280;25567;48.276;14.242;2023-01-25T01:09:14;100054.56;;;1.00;100.00
39897;BME280;25567;48.276;14.242;2023-01-25T01:11:41;100051.81;;;1.02;100.00
39897;BME280;25567;48.276;14.242;2023-01-25T01:14:08;100049.19;;;1.02;100.00
39897;BME280;25567;48.276;14.242;2023-01-25T01:16:35;100051.59;;;1.05;100.00
39897;BME280;25567;48.276;14.242;2023-01-25T01:19:02;100058.56;;;1.05;100.00
39897;BME280;25567;48.276;14.242;2023-01-25T01:21:29;100052.66;;;1.03;100.00
39897;BME280;25567;48.276;14.242;2023-01-25T01:23:55;100054.31;;;1.04;100.00
39897;BME280;25567;48.276;14.242;2023-01-25T01:26:23;100043.97;;;1.02;100.00
39897;BME280;25567;48.276;14.242;2023-01-25T01:28:49;100052.66;;;1.03;100.00
39897;BME280;25567;48.276;14.242;2023-01-25T01:31:19;100054.44;;;1.02;100.00
39897;BME280;25567;48.276;14.242;2023-01-25T01:33:49;100051.00;;;1.02;100.00
39897;BME280;25567;48.276;14.242;2023-01-25T01:36:18;100055.41;;;1.01;100.00
39897;BME280;25567;48.276;14.242;2023-01-25T01:38:45;100055.53;;;0.99;100.00
39897;BME280;25567;48.276;14.242;2023-01-25T01:41:13;100054.69;;;0.99;100.00
39897;BME280;25567;48.276;14.242;2023-01-25T01:43:41;100056.50;;;0.98;100.00
39897;BME280;25567;48.276;14.242;2023-01-25T01:48:41;100056.63;;;0.97;100.00
39897;BME280;25567;48.276;14.242;2023-01-25T01:51:22;100055.66;;;0.98;100.00
39897;BME280;25567;48.276;14.242;2023-01-25T01:53:55;100060.88;;;0.98;100.00
39897;BME280;25567;48.276;14.242;2023-01-25T01:56:29;100058.56;;;1.05;100.00
39897;BME280;25567;48.276;14.242;2023-01-25T01:58:58;100053.59;;;1.02;100.00
39897;BME280;25567;48.276;14.242;2023-01-25T02:01:26;100052.78;;;1.01;100.00
39897;BME280;25567;48.276;14.242;2023-01-25T02:03:53;100054.69;;;0.99;100.00
39897;BME280;25567;48.276;14.242;2023-01-25T02:06:27;100055.78;;;0.96;100.00
39897;BME280;25567;48.276;14.242;2023-01-25T02:08:57;100058.53;;;0.95;100.00
39897;BME280;25567;48.276;14.242;2023-01-25T02:11:24;100056.03;;;0.93;100.00
39897;BME280;25567;48.276;14.242;2023-01-25T02:13:53;100049.16;;;0.92;100.00
39897;BME280;25567;48.276;14.242;2023-01-25T02:16:23;100057.13;;;0.91;100.00
39897;BME280;25567;48.276;14.242;2023-01-25T02:18:52;100053.69;;;0.90;100.00
39897;BME280;25567;48.276;14.242;2023-01-25T02:21:21;100044.19;;;0.89;100.00
39897;BME280;25567;48.276;14.242;2023-01-25T02:24:03;100052.03;;;0.89;100.00
39897;BME280;25567;48.276;14.242;2023-01-25T02:26:32;100040.63;;;0.90;100.00
39897;BME280;25567;48.276;14.242;2023-01-25T02:29:04;100037.16;;;0.90;100.00
39897;BME280;25567;48.276;14.242;2023-01-25T02:31:31;100043.09;;;0.92;100.00
39897;BME280;25567;48.276;14.242;2023-01-25T02:33:58;100046.53;;;0.92;100.00
39897;BME280;25567;48.276;14.242;2023-01-25T02:36:28;100048.34;;;0.92;100.00
39897;BME280;25567;48.276;14.242;2023-01-25T02:39:02;100037.03;;;0.91;100.00
39897;BME280;25567;48.276;14.242;2023-01-25T02:43:59;100035.41;;;0.90;100.00
39897;BME280;25567;48.276;14.242;2023-01-25T02:46:28;100038.00;;;0.90;100.00
39897;BME280;25567;48.276;14.242;2023-01-25T02:48:58;100032.66;;;0.92;100.00
39897;BME280;25567;48.276;14.242;2023-01-25T02:51:26;100031.81;;;0.91;100.00
39897;BME280;25567;48.276;14.242;2023-01-25T02:53:54;100037.16;;;0.90;100.00
39897;BME280;25567;48.276;14.242;2023-01-25T02:56:21;100029.47;;;0.88;100.00
39897;BME280;25567;48.276;14.242;2023-01-25T02:58:48;100034.69;;;0.88;100.00
39897;BME280;25567;48.276;14.242;2023-01-25T03:01:16;100033.72;;;0.89;100.00
39897;BME280;25567;48.276;14.242;2023-01-25T03:03:42;100033.88;;;0.88;100.00
39897;BME280;25567;48.276;14.242;2023-01-25T03:06:09;100030.41;;;0.87;100.00
39897;BME280;25567;48.276;14.242;2023-01-25T03:08:36;100031.25;;;0.88;100.00
39897;BME280;25567;48.276;14.242;2023-01-25T03:11:05;100036.34;;;0.89;100.00
39897;BME280;25567;48.276;14.242;2023-01-25T03:13:32;100030.28;;;0.89;100.00
39897;BME280;25567;48.276;14.242;2023-01-25T03:16:02;100031.34;;;0.86;100.00
39897;BME280;25567;48.276;14.242;2023-01-25T03:18:29;100029.47;;;0.88;100.00
39897;BME280;25567;48.276;14.242;2023-01-25T03:20:56;100027.66;;;0.89;100.00
39897;BME280;25567;48.276;14.242;2023-01-25T03:23:29;100026.25;;;0.85;100.00
39897;BME280;25567;48.276;14.242;2023-01-25T03:26:04;100027.94;;;0.86;100.00
39897;BME280;25567;48.276;14.242;2023-01-25T03:28:31;100024.50;;;0.85;100.00
39897;BME280;25567;48.276;14.242;2023-01-25T03:30:58;100016.75;;;0.83;100.00
39897;BME280;25567;48.276;14.242;2023-01-25T03:33:24;100015.13;;;0.82;100.00
39897;BME280;25567;48.276;14.242;2023-01-25T03:35:52;100018.69;;;0.81;100.00
39897;BME280;25567;48.276;14.242;2023-01-25T03:38:19;100016.06;;;0.81;100.00
39897;BME280;25567;48.276;14.242;2023-01-25T03:40:46;100010.97;;;0.80;100.00
39897;BME280;25567;48.276;14.242;2023-01-25T03:43:13;100009.31;;;0.79;100.00
39897;BME280;25567;48.276;14.242;2023-01-25T03:45:40;100009.44;;;0.77;100.00
39897;BME280;25567;48.276;14.242;2023-01-25T03:48:06;100013.97;;;0.75;100.00
39897;BME280;25567;48.276;14.242;2023-01-25T03:50:33;100004.38;;;0.76;100.00
39897;BME280;25567;48.276;14.242;2023-01-25T03:53:00;100006.97;;;0.76;100.00
39897;BME280;25567;48.276;14.242;2023-01-25T03:55:33;99999.81;;;0.78;100.00
39897;BME280;25567;48.276;14.242;2023-01-25T03:58:00;100004.22;;;0.77;100.00
39897;BME280;25567;48.276;14.242;2023-01-25T04:00:26;100000.41;;;0.81;100.00
39897;BME280;25567;48.276;14.242;2023-01-25T04:02:53;99994.38;;;0.81;100.00
39897;BME280;25567;48.276;14.242;2023-01-25T04:05:19;99990.91;;;0.80;100.00
39897;BME280;25567;48.276;14.242;2023-01-25T04:07:46;99986.63;;;0.79;100.00
39897;BME280;25567;48.276;14.242;2023-01-25T04:10:13;99988.44;;;0.79;100.00
39897;BME280;25567;48.276;14.242;2023-01-25T04:12:39;99981.41;;;0.79;100.00
39897;BME280;25567;48.276;14.242;2023-01-25T04:15:06;99986.53;;;0.81;100.00
39897;BME280;25567;48.276;14.242;2023-01-25T04:17:34;99979.78;;;0.78;100.00
39897;BME280;25567;48.276;14.242;2023-01-25T04:20:00;99979.78;;;0.78;100.00
39897;BME280;25567;48.276;14.242;2023-01-25T04:22:27;99972.75;;;0.79;100.00
39897;BME280;25567;48.276;14.242;2023-01-25T04:24:53;99966.56;;;0.80;100.00
39897;BME280;25567;48.276;14.242;2023-01-25T04:27:26;99970.84;;;0.81;100.00
39897;BME280;25567;48.276;14.242;2023-01-25T04:29:53;99966.44;;;0.81;100.00
39897;BME280;25567;48.276;14.242;2023-01-25T04:32:20;99969.88;;;0.82;100.00
39897;BME280;25567;48.276;14.242;2023-01-25T04:34:46;99965.63;;;0.81;100.00
39897;BME280;25567;48.276;14.242;2023-01-25T04:37:13;99961.34;;;0.80;100.00
39897;BME280;25567;48.276;14.242;2023-01-25T04:39:39;99960.41;;;0.81;100.00
39897;BME280;25567;48.276;14.242;2023-01-25T04:42:06;99961.34;;;0.80;100.00
39897;BME280;25567;48.276;14.242;2023-01-25T04:44:33;99960.78;;;0.76;100.00
39897;BME280;25567;48.276;14.242;2023-01-25T04:46:59;99969.44;;;0.77;100.00
39897;BME280;25567;48.276;14.242;2023-01-25T04:49:26;99968.59;;;0.76;100.00
39897;BME280;25567;48.276;14.242;2023-01-25T04:51:52;99966.13;;;0.75;100.00
39897;BME280;25567;48.276;14.242;2023-01-25T04:54:19;99966.00;;;0.76;100.00
39897;BME280;25567;48.276;14.242;2023-01-25T04:56:46;99961.84;;;0.74;100.00
39897;BME280;25567;48.276;14.242;2023-01-25T04:59:12;99962.81;;;0.73;100.00
39897;BME280;25567;48.276;14.242;2023-01-25T05:01:39;99960.06;;;0.74;100.00
39897;BME280;25567;48.276;14.242;2023-01-25T05:04:06;99963.78;;;0.72;100.00
39897;BME280;25567;48.276;14.242;2023-01-25T05:06:32;99963.88;;;0.70;100.00
39897;BME280;25567;48.276;14.242;2023-01-25T05:08:59;99962.13;;;0.71;100.00
39897;BME280;25567;48.276;14.242;2023-01-25T05:11:26;99957.72;;;0.71;100.00
39897;BME280;25567;48.276;14.242;2023-01-25T05:13:52;99962.00;;;0.72;100.00
39897;BME280;25567;48.276;14.242;2023-01-25T05:16:20;99967.09;;;0.74;100.00
39897;BME280;25567;48.276;14.242;2023-01-25T05:18:47;99961.16;;;0.72;100.00
39897;BME280;25567;48.276;14.242;2023-01-25T05:21:14;99958.56;;;0.72;100.00
39897;BME280;25567;48.276;14.242;2023-01-25T05:23:56;99956.06;;;0.70;100.00
39897;BME280;25567;48.276;14.242;2023-01-25T05:26:23;99950.00;;;0.70;100.00
39897;BME280;25567;48.276;14.242;2023-01-25T05:29:05;99943.97;;;0.69;100.00
39897;BME280;25567;48.276;14.242;2023-01-25T05:31:32;99953.44;;;0.70;100.00
39897;BME280;25567;48.276;14.242;2023-01-25T05:33:59;99944.78;;;0.70;100.00
39897;BME280;25567;48.276;14.242;2023-01-25T05:36:25;99936.00;;;0.71;100.00
39897;BME280;25567;48.276;14.242;2023-01-25T05:38:52;99936.25;;;0.68;100.00
39897;BME280;25567;48.276;14.242;2023-01-25T05:41:19;99942.19;;;0.70;100.00
39897;BME280;25567;48.276;14.242;2023-01-25T05:43:47;99934.34;;;0.70;100.00
39897;BME280;25567;48.276;14.242;2023-01-25T05:46:17;99939.25;;;0.63;100.00
39897;BME280;25567;48.276;14.242;2023-01-25T05:48:46;99935.56;;;0.65;100.00
39897;BME280;25567;48.276;14.242;2023-01-25T05:51:13;99940.06;;;0.63;100.00
39897;BME280;25567;48.276;14.242;2023-01-25T05:53:39;99931.28;;;0.64;100.00
39897;BME280;25567;48.276;14.242;2023-01-25T05:56:07;99924.41;;;0.63;100.00
39897;BME280;25567;48.276;14.242;2023-01-25T05:58:36;99921.22;;;0.60;100.00
39897;BME280;25567;48.276;14.242;2023-01-25T06:01:05;99929.88;;;0.60;100.00
39897;BME280;25567;48.276;14.242;2023-01-25T06:03:32;99927.00;;;0.63;100.00
39897;BME280;25567;48.276;14.242;2023-01-25T06:06:00;99925.63;;;0.59;100.00
39897;BME280;25567;48.276;14.242;2023-01-25T06:08:30;99931.78;;;0.58;100.00
39897;BME280;25567;48.276;14.242;2023-01-25T06:10:57;99927.28;;;0.60;100.00
39897;BME280;25567;48.276;14.242;2023-01-25T06:13:24;99929.63;;;0.63;100.00
39897;BME280;25567;48.276;14.242;2023-01-25T06:15:53;99928.94;;;0.61;100.00
39897;BME280;25567;48.276;14.242;2023-01-25T06:18:20;99928.81;;;0.63;100.00
39897;BME280;25567;48.276;14.242;2023-01-25T06:20:47;99934.03;;;0.63;100.00
39897;BME280;25567;48.276;14.242;2023-01-25T06:23:14;99929.63;;;0.63;100.00
39897;BME280;25567;48.276;14.242;2023-01-25T06:25:40;99932.09;;;0.65;100.00
39897;BME280;25567;48.276;14.242;2023-01-25T06:28:07;99931.28;;;0.64;100.00
39897;BME280;25567;48.276;14.242;2023-01-25T06:30:34;99937.44;;;0.63;100.00
39897;BME280;25567;48.276;14.242;2023-01-25T06:33:01;99937.44;;;0.63;100.00
39897;BME280;25567;48.276;14.242;2023-01-25T06:35:30;99933.75;;;0.66;100.00
39897;BME280;25567;48.276;14.242;2023-01-25T06:37:58;99931.41;;;0.63;100.00
39897;BME280;25567;48.276;14.242;2023-01-25T06:40:26;99933.22;;;0.62;100.00
39897;BME280;25567;48.276;14.242;2023-01-25T06:42:53;99934.03;;;0.63;100.00
39897;BME280;25567;48.276;14.242;2023-01-25T06:45:20;99932.22;;;0.63;100.00
39897;BME280;25567;48.276;14.242;2023-01-25T06:47:48;99933.91;;;0.64;100.00
39897;BME280;25567;48.276;14.242;2023-01-25T06:50:15;99930.47;;;0.64;100.00
39897;BME280;25567;48.276;14.242;2023-01-25T06:52:41;99929.25;;;0.68;100.00
39897;BME280;25567;48.276;14.242;2023-01-25T06:55:08;99930.34;;;0.65;100.00
39897;BME280;25567;48.276;14.242;2023-01-25T06:57:39;99929.63;;;0.63;100.00
39897;BME280;25567;48.276;14.242;2023-01-25T07:00:06;99930.34;;;0.65;100.00
39897;BME280;25567;48.276;14.242;2023-01-25T07:02:33;99936.50;;;0.64;100.00
39897;BME280;25567;48.276;14.242;2023-01-25T07:04:59;99931.16;;;0.66;100.00
39897;BME280;25567;48.276;14.242;2023-01-25T07:07:26;99932.94;;;0.65;100.00
39897;BME280;25567;48.276;14.242;2023-01-25T07:09:52;99927.72;;;0.65;100.00
39897;BME280;25567;48.276;14.242;2023-01-25T07:12:19;99926.63;;;0.68;100.00
39897;BME280;25567;48.276;14.242;2023-01-25T07:14:47;99918.09;;;0.66;100.00
39897;BME280;25567;48.276;14.242;2023-01-25T07:17:14;99924.41;;;0.63;100.00
39897;BME280;25567;48.276;14.242;2023-01-25T07:19:41;99917.28;;;0.65;100.00
39897;BME280;25567;48.276;14.242;2023-01-25T07:22:08;99919.75;;;0.67;100.00
39897;BME280;25567;48.276;14.242;2023-01-25T07:24:34;99912.88;;;0.66;100.00
39897;BME280;25567;48.276;14.242;2023-01-25T07:27:01;99914.78;;;0.64;100.00
39897;BME280;25567;48.276;14.242;2023-01-25T07:29:27;99915.75;;;0.63;100.00
39897;BME280;25567;48.276;14.242;2023-01-25T07:31:55;99915.63;;;0.64;100.00
39897;BME280;25567;48.276;14.242;2023-01-25T07:34:21;99921.78;;;0.63;100.00
39897;BME280;25567;48.276;14.242;2023-01-25T07:36:48;99913.94;;;0.63;100.00
39897;BME280;25567;48.276;14.242;2023-01-25T07:39:15;99920.16;;;0.62;100.00
39897;BME280;25567;48.276;14.242;2023-01-25T07:41:42;99907.34;;;0.59;100.00
39897;BME280;25567;48.276;14.242;2023-01-25T07:44:09;99907.59;;;0.56;100.00
39897;BME280;25567;48.276;14.242;2023-01-25T07:46:35;99907.59;;;0.56;100.00
39897;BME280;25567;48.276;14.242;2023-01-25T07:49:02;99906.50;;;0.59;100.00
39897;BME280;25567;48.276;14.242;2023-01-25T07:51:29;99908.03;;;0.61;100.00
39897;BME280;25567;48.276;14.242;2023-01-25T07:53:58;99914.22;;;0.60;100.00
39897;BME280;25567;48.276;14.242;2023-01-25T07:56:27;99914.22;;;0.60;100.00
39897;BME280;25567;48.276;14.242;2023-01-25T07:58:55;99912.69;;;0.58;100.00
39897;BME280;25567;48.276;14.242;2023-01-25T08:01:24;99911.88;;;0.57;100.00
39897;BME280;25567;48.276;14.242;2023-01-25T08:03:52;99905.81;;;0.57;100.00
39897;BME280;25567;48.276;14.242;2023-01-25T08:06:24;99911.03;;;0.57;100.00
39897;BME280;25567;48.276;14.242;2023-01-25T08:08:53;99909.25;;;0.57;100.00
39897;BME280;25567;48.276;14.242;2023-01-25T08:11:23;99911.97;;;0.56;100.00
39897;BME280;25567;48.276;14.242;2023-01-25T08:13:50;99919.00;;;0.55;100.00
39897;BME280;25567;48.276;14.242;2023-01-25T08:16:19;99912.09;;;0.54;100.00
39897;BME280;25567;48.276;14.242;2023-01-25T08:18:48;99916.50;;;0.54;100.00
39897;BME280;25567;48.276;14.242;2023-01-25T08:21:15;99916.38;;;0.55;100.00
39897;BME280;25567;48.276;14.242;2023-01-25T08:23:41;99919.13;;;0.54;100.00
39897;BME280;25567;48.276;14.242;2023-01-25T08:26:10;99921.88;;;0.52;100.00
39897;BME280;25567;48.276;14.242;2023-01-25T08:28:44;99917.47;;;0.53;100.00
39897;BME280;25567;48.276;14.242;2023-01-25T08:31:15;99917.47;;;0.53;100.00
39897;BME280;25567;48.276;14.242;2023-01-25T08:33:42;99917.31;;;0.54;100.00
39897;BME280;25567;48.276;14.242;2023-01-25T08:36:12;99912.25;;;0.53;100.00
39897;BME280;25567;48.276;14.242;2023-01-25T08:38:39;99907.88;;;0.53;100.00
39897;BME280;25567;48.276;14.242;2023-01-25T08:41:09;99903.47;;;0.54;100.00
39897;BME280;25567;48.276;14.242;2023-01-25T08:43:36;99904.41;;;0.53;100.00
39897;BME280;25567;48.276;14.242;2023-01-25T08:46:03;99903.47;;;0.54;100.00
39897;BME280;25567;48.276;14.242;2023-01-25T08:48:30;99902.75;;;0.52;100.00
39897;BME280;25567;48.276;14.242;2023-01-25T08:50:57;99905.13;;;0.55;100.00
39897;BME280;25567;48.276;14.242;2023-01-25T08:53:26;99909.50;;;0.54;100.00
39897;BME280;25567;48.276;14.242;2023-01-25T08:55:53;99900.84;;;0.54;100.00
39897;BME280;25567;48.276;14.242;2023-01-25T08:58:20;99892.88;;;0.55;100.00
39897;BME280;25567;48.276;14.242;2023-01-25T09:00:48;99894.81;;;0.53;100.00
39897;BME280;25567;48.276;14.242;2023-01-25T09:03:15;99885.31;;;0.52;100.00
39897;BME280;25567;48.276;14.242;2023-01-25T09:05:43;99887.06;;;0.52;100.00
39897;BME280;25567;48.276;14.242;2023-01-25T09:08:10;99882.72;;;0.52;100.00
39897;BME280;25567;48.276;14.242;2023-01-25T09:10:36;99877.47;;;0.52;100.00
39897;BME280;25567;48.276;14.242;2023-01-25T09:13:03;99875.56;;;0.54;100.00
39897;BME280;25567;48.276;14.242;2023-01-25T09:15:33;99873.53;;;0.58;100.00
39897;BME280;25567;48.276;14.242;2023-01-25T09:18:00;99877.22;;;0.55;100.00
39897;BME280;25567;48.276;14.242;2023-01-25T09:20:26;99872.94;;;0.54;100.00
39897;BME280;25567;48.276;14.242;2023-01-25T09:22:58;99872.72;;;0.57;100.00
39897;BME280;25567;48.276;14.242;2023-01-25T09:25:24;99874.47;;;0.57;100.00
39897;BME280;25567;48.276;14.242;2023-01-25T09:27:51;99877.34;;;0.54;100.00
39897;BME280;25567;48.276;14.242;2023-01-25T09:30:18;99872.00;;;0.55;100.00
39897;BME280;25567;48.276;14.242;2023-01-25T09:32:48;99875.56;;;0.54;100.00
39897;BME280;25567;48.276;14.242;2023-01-25T09:35:15;99867.84;;;0.53;100.00
39897;BME280;25567;48.276;14.242;2023-01-25T09:37:42;99874.75;;;0.54;100.00
39897;BME280;25567;48.276;14.242;2023-01-25T09:40:18;99871.03;;;0.56;100.00
39897;BME280;25567;48.276;14.242;2023-01-25T09:42:59;99860.72;;;0.55;100.00
39897;BME280;25567;48.276;14.242;2023-01-25T09:45:35;99861.81;;;0.52;100.00
39897;BME280;25567;48.276;14.242;2023-01-25T09:48:09;99857.53;;;0.51;100.00
39897;BME280;25567;48.276;14.242;2023-01-25T09:55:43;99857.84;;;0.58;100.00
39897;BME280;25567;48.276;14.242;2023-01-25T09:58:18;99859.50;;;0.59;100.00
39897;BME280;25567;48.276;14.242;2023-01-25T10:00:45;99862.25;;;0.57;100.00
39897;BME280;25567;48.276;14.242;2023-01-25T10:05:59;99849.88;;;0.59;100.00
39897;BME280;25567;48.276;14.242;2023-01-25T10:11:05;99848.34;;;0.57;100.00
39897;BME280;25567;48.276;14.242;2023-01-25T10:13:34;99845.75;;;0.57;100.00
39897;BME280;25567;48.276;14.242;2023-01-25T10:16:04;99845.06;;;0.55;100.00
39897;BME280;25567;48.276;14.242;2023-01-25T10:21:17;99838.19;;;0.54;100.00
39897;BME280;25567;48.276;14.242;2023-01-25T10:26:32;99833.63;;;0.56;100.00
39897;BME280;25567;48.276;14.242;2023-01-25T10:31:50;99819.50;;;0.58;100.00
39897;BME280;25567;48.276;14.242;2023-01-25T10:34:23;99812.66;;;0.57;100.00
39897;BME280;25567;48.276;14.242;2023-01-25T10:36:54;99803.97;;;0.57;100.00
39897;BME280;25567;48.276;14.242;2023-01-25T10:39:22;99796.28;;;0.55;100.00
39897;BME280;25567;48.276;14.242;2023-01-25T10:41:56;99788.44;;;0.55;100.00
39897;BME280;25567;48.276;14.242;2023-01-25T10:44:24;99791.06;;;0.55;100.00
39897;BME280;25567;48.276;14.242;2023-01-25T10:52:17;99777.19;;;0.55;100.00
39897;BME280;25567;48.276;14.242;2023-01-25T10:54:45;99772.09;;;0.53;100.00
39897;BME280;25567;48.276;14.242;2023-01-25T10:57:16;99766.88;;;0.53;100.00
39897;BME280;25567;48.276;14.242;2023-01-25T10:59:47;99760.13;;;0.51;100.00
39897;BME280;25567;48.276;14.242;2023-01-25T11:05:24;99756.72;;;0.60;100.00
39897;BME280;25567;48.276;14.242;2023-01-25T11:07:51;99753.13;;;0.61;100.00
39897;BME280;25567;48.276;14.242;2023-01-25T11:10:35;99744.50;;;0.60;100.00
39897;BME280;25567;48.276;14.242;2023-01-25T11:13:18;99750.66;;;0.59;100.00
39897;BME280;25567;48.276;14.242;2023-01-25T11:18:24;99730.47;;;0.61;100.00
39897;BME280;25567;48.276;14.242;2023-01-25T11:21:10;99722.78;;;0.60;100.00
39897;BME280;25567;48.276;14.242;2023-01-25T11:23:37;99721.00;;;0.60;100.00
39897;BME280;25567;48.276;14.242;2023-01-25T11:26:13;99713.16;;;0.60;100.00
39897;BME280;25567;48.276;14.242;2023-01-25T11:28:40;99706.97;;;0.61;100.00
39897;BME280;25567;48.276;14.242;2023-01-25T11:31:11;99699.81;;;0.63;100.00
39897;BME280;25567;48.276;14.242;2023-01-25T11:33:39;99700.81;;;0.62;100.00
39897;BME280;25567;48.276;14.242;2023-01-25T11:44:39;99668.47;;;0.63;100.00
39897;BME280;25567;48.276;14.242;2023-01-25T11:52:38;99658.75;;;0.65;100.00
39897;BME280;25567;48.276;14.242;2023-01-25T11:55:24;99660.81;;;0.72;100.00
39897;BME280;25567;48.276;14.242;2023-01-25T12:00:56;99650.38;;;0.72;100.00
39897;BME280;25567;48.276;14.242;2023-01-25T12:06:12;99647.63;;;0.73;100.00
39897;BME280;25567;48.276;14.242;2023-01-25T12:08:48;99643.50;;;0.71;100.00
39897;BME280;25567;48.276;14.242;2023-01-25T12:11:40;99641.03;;;0.69;100.00
39897;BME280;25567;48.276;14.242;2023-01-25T12:17:03;99635.91;;;0.68;100.00
39897;BME280;25567;48.276;14.242;2023-01-25T12:27:57;99612.31;;;0.69;100.00
39897;BME280;25567;48.276;14.242;2023-01-25T12:33:24;99597.31;;;0.71;100.00
39897;BME280;25567;48.276;14.242;2023-01-25T12:38:41;99579.72;;;0.73;100.00
39897;BME280;25567;48.276;14.242;2023-01-25T12:41:25;99593.19;;;0.69;100.00
39897;BME280;25567;48.276;14.242;2023-01-25T12:44:12;99581.78;;;0.70;100.00
39897;BME280;25567;48.276;14.242;2023-01-25T12:46:46;99580.13;;;0.69;100.00
39897;BME280;25567;48.276;14.242;2023-01-25T12:49:24;99571.19;;;0.71;100.00
39897;BME280;25567;48.276;14.242;2023-01-25T12:51:55;99565.81;;;0.73;100.00
39897;BME280;25567;48.276;14.242;2023-01-25T12:54:30;99563.22;;;0.73;100.00
39897;BME280;25567;48.276;14.242;2023-01-25T12:57:22;99561.59;;;0.72;100.00
39897;BME280;25567;48.276;14.242;2023-01-25T12:59:56;99551.13;;;0.72;100.00
39897;BME280;25567;48.276;14.242;2023-01-25T13:05:26;99546.59;;;0.74;100.00
39897;BME280;25567;48.276;14.242;2023-01-25T13:07:59;99543.84;;;0.75;100.00
39897;BME280;25567;48.276;14.242;2023-01-25T13:10:34;99541.22;;;0.75;100.00
39897;BME280;25567;48.276;14.242;2023-01-25T13:15:47;99537.25;;;0.81;100.00
39897;BME280;25567;48.276;14.242;2023-01-25T13:21:00;99538.88;;;0.82;100.00
39897;BME280;25567;48.276;14.242;2023-01-25T13:28:55;99537.38;;;0.79;100.00
39897;BME280;25567;48.276;14.242;2023-01-25T13:31:43;99524.19;;;0.81;100.00
39897;BME280;25567;48.276;14.242;2023-01-25T13:37:16;99522.25;;;0.83;100.00
39897;BME280;25567;48.276;14.242;2023-01-25T13:39:47;99514.41;;;0.83;100.00
39897;BME280;25567;48.276;14.242;2023-01-25T13:42:21;99516.34;;;0.81;100.00
39897;BME280;25567;48.276;14.242;2023-01-25T13:44:52;99522.25;;;0.83;100.00
39897;BME280;25567;48.276;14.242;2023-01-25T13:47:22;99524.84;;;0.83;100.00
39897;BME280;25567;48.276;14.242;2023-01-25T13:50:01;99510.84;;;0.84;100.00
39897;BME280;25567;48.276;14.242;2023-01-25T13:52:29;99512.63;;;0.83;100.00
39897;BME280;25567;48.276;14.242;2023-01-25T13:54:58;99515.38;;;0.82;100.00
39897;BME280;25567;48.276;14.242;2023-01-25T13:57:30;99503.69;;;0.86;100.00
39897;BME280;25567;48.276;14.242;2023-01-25T14:00:03;99504.91;;;0.82;100.00
39897;BME280;25567;48.276;14.242;2023-01-25T14:02:37;99506.44;;;0.85;100.00
39897;BME280;25567;48.276;14.242;2023-01-25T14:05:14;99500.25;;;0.86;100.00
39897;BME280;25567;48.276;14.242;2023-01-25T14:07:45;99503.56;;;0.88;100.00
39897;BME280;25567;48.276;14.242;2023-01-25T14:10:17;99495.03;;;0.86;100.00
39897;BME280;25567;48.276;14.242;2023-01-25T14:12:50;99496.81;;;0.85;100.00
39897;BME280;25567;48.276;14.242;2023-01-25T14:15:21;99492.28;;;0.87;100.00
39897;BME280;25567;48.276;14.242;2023-01-25T14:18:12;99490.75;;;0.85;100.00
39897;BME280;25567;48.276;14.242;2023-01-25T14:20:40;99490.63;;;0.86;100.00
39897;BME280;25567;48.276;14.242;2023-01-25T14:23:26;99492.28;;;0.87;100.00
39897;BME280;25567;48.276;14.242;2023-01-25T14:25:54;99479.22;;;0.87;100.00
39897;BME280;25567;48.276;14.242;2023-01-25T14:28:25;99483.47;;;0.88;100.00
39897;BME280;25567;48.276;14.242;2023-01-25T14:30:54;99483.47;;;0.88;100.00
39897;BME280;25567;48.276;14.242;2023-01-25T14:33:27;99477.44;;;0.88;100.00